sensor_id;sensor_type;location;lat;lon;timestamp;pressure;altitude;pressure_sealevel;temperature;humidity
79362;BME280;68830;47.566;19.012;2023-12-20T00:00:15;100184.59;;;0.41;100.00
79362;BME280;68830;47.566;19.012;2023-12-20T00:03:17;100169.38;;;0.33;100.00
79362;BME280;68830;47.566;19.012;2023-12-20T00:06:21;100173.34;;;0.40;100.00
79362;BME280;68830;47.566;19.012;2023-12-20T00:09:23;100175.19;;;0.38;100.00
79362;BME280;68830;47.566;19.012;2023-12-20T00:12:25;100167.38;;;0.38;100.00
79362;BME280;68830;47.566;19.012;2023-12-20T00:15:27;100100.72;;;0.01;100.00
79362;BME280;68830;47.566;19.012;2023-12-20T00:18:29;100107.22;;;0.10;100.00
79362;BME280;68830;47.566;19.012;2023-12-20T00:21:32;100130.31;;;0.33;100.00
79362;BME280;68830;47.566;19.012;2023-12-20T00:24:34;100088.91;;;0.11;100.00
79362;BME280;68830;47.566;19.012;2023-12-20T00:27:37;100095.78;;;0.12;100.00
79362;BME280;68830;47.566;19.012;2023-12-20T00:30:39;100066.72;;;0.04;100.00
79362;BME280;68830;47.566;19.012;2023-12-20T00:33:41;100125.53;;;0.41;100.00
79362;BME280;68830;47.566;19.012;2023-12-20T00:36:47;100082.94;;;0.09;100.00
79362;BME280;68830;47.566;19.012;2023-12-20T00:39:49;100008.44;;;-0.26;100.00
79362;BME280;68830;47.566;19.012;2023-12-20T00:42:51;100099.19;;;0.30;100.00
79362;BME280;68830;47.566;19.012;2023-12-20T00:45:54;100105.03;;;0.35;100.00
79362;BME280;68830;47.566;19.012;2023-12-20T00:48:57;100093.94;;;0.32;100.00
79362;BME280;68830;47.566;19.012;2023-12-20T00:52:00;100092.22;;;0.30;100.00
79362;BME280;68830;47.566;19.012;2023-12-20T00:55:04;100061.94;;;0.12;100.00
79362;BME280;68830;47.566;19.012;2023-12-20T00:58:06;100085.94;;;0.35;100.00
79362;BME280;68830;47.566;19.012;2023-12-20T01:01:09;100083.81;;;0.25;100.00
79362;BME280;68830;47.566;19.012;2023-12-20T01:04:11;100093.31;;;0.26;100.00
79362;BME280;68830;47.566;19.012;2023-12-20T01:07:14;100084.31;;;0.16;100.00
79362;BME280;68830;47.566;19.012;2023-12-20T01:10:17;100078.41;;;0.13;100.00
79362;BME280;68830;47.566;19.012;2023-12-20T01:13:19;100080.88;;;0.16;100.00
79362;BME280;68830;47.566;19.012;2023-12-20T01:16:21;100073.59;;;0.05;100.00
79362;BME280;68830;47.566;19.012;2023-12-20T01:19:24;100018.69;;;-0.23;100.00
79362;BME280;68830;47.566;19.012;2023-12-20T01:22:27;100021.97;;;-0.37;100.00
79362;BME280;68830;47.566;19.012;2023-12-20T01:25:30;100025.41;;;-0.19;100.00
79362;BME280;68830;47.566;19.012;2023-12-20T01:28:32;100064.19;;;0.03;100.00
79362;BME280;68830;47.566;19.012;2023-12-20T01:31:34;100008.81;;;-0.34;100.00
79362;BME280;68830;47.566;19.012;2023-12-20T01:34:36;100052.31;;;-0.03;100.00
79362;BME280;68830;47.566;19.012;2023-12-20T01:37:39;100047.81;;;0.01;100.00
79362;BME280;68830;47.566;19.012;2023-12-20T01:40:42;100040.91;;;-0.01;100.00
79362;BME280;68830;47.566;19.012;2023-12-20T01:43:44;100028.13;;;-0.05;100.00
79362;BME280;68830;47.566;19.012;2023-12-20T01:46:52;100021.09;;;-0.03;100.00
79362;BME280;68830;47.566;19.012;2023-12-20T01:49:55;100019.41;;;-0.04;100.00
79362;BME280;68830;47.566;19.012;2023-12-20T01:53:01;100012.44;;;-0.04;100.00
79362;BME280;68830;47.566;19.012;2023-12-20T01:56:05;100014.13;;;-0.03;100.00
79362;BME280;68830;47.566;19.012;2023-12-20T01:59:07;100006.47;;;-0.06;100.00
79362;BME280;68830;47.566;19.012;2023-12-20T02:02:10;100001.81;;;0.01;100.00
79362;BME280;68830;47.566;19.012;2023-12-20T02:05:14;99899.84;;;-0.56;100.00
79362;BME280;68830;47.566;19.012;2023-12-20T02:08:18;99886.63;;;-0.69;100.00
79362;BME280;68830;47.566;19.012;2023-12-20T02:11:21;99877.06;;;-0.68;100.00
79362;BME280;68830;47.566;19.012;2023-12-20T02:14:26;99873.81;;;-0.72;100.00
79362;BME280;68830;47.566;19.012;2023-12-20T02:17:29;99972.13;;;-0.12;100.00
79362;BME280;68830;47.566;19.012;2023-12-20T02:20:33;99785.44;;;-1.22;100.00
79362;BME280;68830;47.566;19.012;2023-12-20T02:23:36;99923.97;;;-0.37;100.00
79362;BME280;68830;47.566;19.012;2023-12-20T02:26:39;99875.22;;;-0.66;100.00
79362;BME280;68830;47.566;19.012;2023-12-20T02:29:47;99954.13;;;-0.17;100.00
79362;BME280;68830;47.566;19.012;2023-12-20T02:32:50;99856.53;;;-0.73;100.00
79362;BME280;68830;47.566;19.012;2023-12-20T02:35:53;99846.28;;;-0.76;100.00
79362;BME280;68830;47.566;19.012;2023-12-20T02:38:57;99907.84;;;-0.43;100.00
79362;BME280;68830;47.566;19.012;2023-12-20T02:41:59;99949.78;;;-0.16;100.00
79362;BME280;68830;47.566;19.012;2023-12-20T02:45:01;99882.16;;;-0.49;100.00
79362;BME280;68830;47.566;19.012;2023-12-20T02:48:04;99766.25;;;-1.19;100.00
79362;BME280;68830;47.566;19.012;2023-12-20T02:51:13;99770.69;;;-1.22;100.00
79362;BME280;68830;47.566;19.012;2023-12-20T02:54:22;99913.84;;;-0.25;100.00
79362;BME280;68830;47.566;19.012;2023-12-20T02:57:24;99779.94;;;-1.16;100.00
79362;BME280;68830;47.566;19.012;2023-12-20T03:00:28;99779.47;;;-1.07;100.00
79362;BME280;68830;47.566;19.012;2023-12-20T03:03:31;99924.16;;;-0.24;100.00
79362;BME280;68830;47.566;19.012;2023-12-20T03:06:33;99858.06;;;-0.53;100.00
79362;BME280;68830;47.566;19.012;2023-12-20T03:09:37;99939.91;;;-0.10;100.00
79362;BME280;68830;47.566;19.012;2023-12-20T03:12:59;99835.34;;;-0.49;100.00
79362;BME280;68830;47.566;19.012;2023-12-20T03:16:01;99918.06;;;0.40;100.00
79362;BME280;68830;47.566;19.012;2023-12-20T03:19:09;99823.88;;;0.02;100.00
79362;BME280;68830;47.566;19.012;2023-12-20T03:22:11;99876.63;;;0.51;100.00
79362;BME280;68830;47.566;19.012;2023-12-20T03:25:15;99912.22;;;0.82;100.00
79362;BME280;68830;47.566;19.012;2023-12-20T03:28:17;99925.25;;;0.82;100.00
79362;BME280;68830;47.566;19.012;2023-12-20T03:31:20;99865.56;;;0.48;100.00
79362;BME280;68830;47.566;19.012;2023-12-20T03:34:23;99741.59;;;-0.16;100.00
79362;BME280;68830;47.566;19.012;2023-12-20T03:37:25;99875.94;;;0.64;100.00
79362;BME280;68830;47.566;19.012;2023-12-20T03:40:28;99770.28;;;-0.02;100.00
79362;BME280;68830;47.566;19.012;2023-12-20T03:43:31;99822.38;;;0.28;100.00
79362;BME280;68830;47.566;19.012;2023-12-20T03:46:33;99829.69;;;0.37;100.00
79362;BME280;68830;47.566;19.012;2023-12-20T03:49:35;99852.91;;;0.56;100.00
79362;BME280;68830;47.566;19.012;2023-12-20T03:52:39;99916.25;;;1.02;100.00
79362;BME280;68830;47.566;19.012;2023-12-20T03:55:42;99761.88;;;0.09;100.00
79362;BME280;68830;47.566;19.012;2023-12-20T03:58:45;99806.25;;;0.37;100.00
79362;BME280;68830;47.566;19.012;2023-12-20T04:01:47;99907.22;;;0.94;100.00
79362;BME280;68830;47.566;19.012;2023-12-20T04:04:50;99837.47;;;0.53;100.00
79362;BME280;68830;47.566;19.012;2023-12-20T04:07:54;99910.66;;;0.94;100.00
79362;BME280;68830;47.566;19.012;2023-12-20T04:10:58;99911.59;;;0.93;100.00
79362;BME280;68830;47.566;19.012;2023-12-20T04:14:00;99907.88;;;0.97;100.00
79362;BME280;68830;47.566;19.012;2023-12-20T04:17:03;99790.53;;;0.39;100.00
79362;BME280;68830;47.566;19.012;2023-12-20T04:20:06;99812.78;;;0.44;100.00
79362;BME280;68830;47.566;19.012;2023-12-20T04:23:09;99885.34;;;0.96;100.00
79362;BME280;68830;47.566;19.012;2023-12-20T04:26:14;99879.91;;;0.85;100.00
79362;BME280;68830;47.566;19.012;2023-12-20T04:29:16;99882.88;;;0.79;100.00
79362;BME280;68830;47.566;19.012;2023-12-20T04:32:18;99886.56;;;0.75;100.00
79362;BME280;68830;47.566;19.012;2023-12-20T04:35:20;99771.03;;;0.16;100.00
79362;BME280;68830;47.566;19.012;2023-12-20T04:38:23;99797.75;;;0.49;100.00
79362;BME280;68830;47.566;19.012;2023-12-20T04:41:26;99757.78;;;0.35;100.00
79362;BME280;68830;47.566;19.012;2023-12-20T04:44:29;99839.53;;;0.92;100.00
79362;BME280;68830;47.566;19.012;2023-12-20T04:47:34;99743.84;;;0.36;100.00
79362;BME280;68830;47.566;19.012;2023-12-20T04:50:39;99777.81;;;0.48;100.00
79362;BME280;68830;47.566;19.012;2023-12-20T04:53:41;99819.78;;;0.88;100.00
79362;BME280;68830;47.566;19.012;2023-12-20T04:56:45;99713.28;;;0.23;100.00
79362;BME280;68830;47.566;19.012;2023-12-20T04:59:47;99760.44;;;0.49;100.00
79362;BME280;68830;47.566;19.012;2023-12-20T05:02:49;99703.34;;;0.30;100.00
79362;BME280;68830;47.566;19.012;2023-12-20T05:05:51;99811.41;;;0.83;100.00
79362;BME280;68830;47.566;19.012;2023-12-20T05:08:56;99629.69;;;-0.16;100.00
79362;BME280;68830;47.566;19.012;2023-12-20T05:12:00;99687.53;;;0.19;100.00
79362;BME280;68830;47.566;19.012;2023-12-20T05:15:06;99800.44;;;0.92;100.00
79362;BME280;68830;47.566;19.012;2023-12-20T05:18:08;99688.47;;;0.18;100.00
79362;BME280;68830;47.566;19.012;2023-12-20T05:21:11;99712.56;;;0.21;100.00
79362;BME280;68830;47.566;19.012;2023-12-20T05:24:14;99642.19;;;-0.07;100.00
79362;BME280;68830;47.566;19.012;2023-12-20T05:27:18;99710.03;;;0.20;100.00
79362;BME280;68830;47.566;19.012;2023-12-20T05:30:20;99642.69;;;-0.16;100.00
79362;BME280;68830;47.566;19.012;2023-12-20T05:33:22;99787.81;;;0.70;100.00
79362;BME280;68830;47.566;19.012;2023-12-20T05:36:27;99741.44;;;0.47;100.00
79362;BME280;68830;47.566;19.012;2023-12-20T05:39:30;99786.41;;;0.65;100.00
79362;BME280;68830;47.566;19.012;2023-12-20T05:42:45;99775.44;;;0.74;100.00
79362;BME280;68830;47.566;19.012;2023-12-20T05:45:51;99749.72;;;0.53;100.00
79362;BME280;68830;47.566;19.012;2023-12-20T05:48:53;99604.66;;;-0.33;100.00
79362;BME280;68830;47.566;19.012;2023-12-20T05:51:56;99764.75;;;0.64;100.00
79362;BME280;68830;47.566;19.012;2023-12-20T05:55:05;99761.38;;;0.62;100.00
79362;BME280;68830;47.566;19.012;2023-12-20T05:58:11;99687.31;;;0.08;100.00
79362;BME280;68830;47.566;19.012;2023-12-20T06:01:16;99692.78;;;0.03;100.00
79362;BME280;68830;47.566;19.012;2023-12-20T06:04:22;99596.31;;;-0.54;100.00
79362;BME280;68830;47.566;19.012;2023-12-20T06:07:24;99756.69;;;0.39;100.00
79362;BME280;68830;47.566;19.012;2023-12-20T06:10:34;99664.22;;;-0.13;100.00
79362;BME280;68830;47.566;19.012;2023-12-20T06:13:42;99759.41;;;0.51;100.00
79362;BME280;68830;47.566;19.012;2023-12-20T06:16:45;99759.03;;;0.57;100.00
79362;BME280;68830;47.566;19.012;2023-12-20T06:19:50;99620.03;;;-0.28;100.00
79362;BME280;68830;47.566;19.012;2023-12-20T06:22:53;99679.78;;;0.03;100.00
79362;BME280;68830;47.566;19.012;2023-12-20T06:26:08;99782.66;;;0.54;100.00
79362;BME280;68830;47.566;19.012;2023-12-20T06:29:16;99619.50;;;-0.35;100.00
79362;BME280;68830;47.566;19.012;2023-12-20T06:32:18;99704.19;;;0.16;100.00
79362;BME280;68830;47.566;19.012;2023-12-20T06:35:21;99787.44;;;0.62;100.00
79362;BME280;68830;47.566;19.012;2023-12-20T06:38:23;99802.81;;;0.67;100.00
79362;BME280;68830;47.566;19.012;2023-12-20T06:41:25;99617.28;;;-0.41;100.00
79362;BME280;68830;47.566;19.012;2023-12-20T06:44:29;99812.38;;;0.66;100.00
79362;BME280;68830;47.566;19.012;2023-12-20T06:47:31;99627.91;;;-0.60;100.00
79362;BME280;68830;47.566;19.012;2023-12-20T06:50:34;99822.25;;;0.45;100.00
79362;BME280;68830;47.566;19.012;2023-12-20T06:53:36;99821.88;;;0.37;100.00
79362;BME280;68830;47.566;19.012;2023-12-20T06:56:38;99714.09;;;-0.36;100.00
79362;BME280;68830;47.566;19.012;2023-12-20T06:59:52;99816.75;;;0.36;100.00
79362;BME280;68830;47.566;19.012;2023-12-20T07:02:55;99765.44;;;-1.89;100.00
79362;BME280;68830;47.566;19.012;2023-12-20T07:06:05;99766.25;;;-2.80;100.00
79362;BME280;68830;47.566;19.012;2023-12-20T07:09:28;99694.16;;;-3.28;100.00
79362;BME280;68830;47.566;19.012;2023-12-20T07:12:45;99762.94;;;-3.02;100.00
79362;BME280;68830;47.566;19.012;2023-12-20T07:15:59;99755.47;;;-2.89;100.00
79362;BME280;68830;47.566;19.012;2023-12-20T07:19:39;99648.38;;;-3.65;100.00
79362;BME280;68830;47.566;19.012;2023-12-20T07:22:59;99567.91;;;-4.18;100.00
79362;BME280;68830;47.566;19.012;2023-12-20T07:26:01;99592.34;;;-4.05;100.00
79362;BME280;68830;47.566;19.012;2023-12-20T07:29:11;99615.09;;;-3.93;100.00
79362;BME280;68830;47.566;19.012;2023-12-20T07:32:14;99723.25;;;-3.03;100.00
79362;BME280;68830;47.566;19.012;2023-12-20T07:35:18;99660.13;;;-2.64;100.00
79362;BME280;68830;47.566;19.012;2023-12-20T07:38:21;99826.28;;;-0.91;100.00
79362;BME280;68830;47.566;19.012;2023-12-20T07:41:39;99821.09;;;-0.42;100.00
79362;BME280;68830;47.566;19.012;2023-12-20T07:44:41;99813.47;;;-0.14;100.00
79362;BME280;68830;47.566;19.012;2023-12-20T07:47:52;99756.72;;;-0.23;100.00
79362;BME280;68830;47.566;19.012;2023-12-20T07:51:13;99693.88;;;-0.47;100.00
79362;BME280;68830;47.566;19.012;2023-12-20T07:54:21;99711.84;;;-0.42;100.00
79362;BME280;68830;47.566;19.012;2023-12-20T07:57:23;99798.47;;;0.21;100.00
79362;BME280;68830;47.566;19.012;2023-12-20T08:00:30;99798.81;;;0.31;100.00
79362;BME280;68830;47.566;19.012;2023-12-20T08:03:34;99671.25;;;-2.43;100.00
79362;BME280;68830;47.566;19.012;2023-12-20T08:06:37;99774.03;;;-2.42;100.00
79362;BME280;68830;47.566;19.012;2023-12-20T08:09:42;99765.06;;;-2.54;100.00
79362;BME280;68830;47.566;19.012;2023-12-20T08:12:49;99732.97;;;-2.51;100.00
79362;BME280;68830;47.566;19.012;2023-12-20T08:15:52;99754.84;;;-2.57;100.00
79362;BME280;68830;47.566;19.012;2023-12-20T08:18:55;99722.00;;;-2.75;100.00
79362;BME280;68830;47.566;19.012;2023-12-20T08:21:57;99768.00;;;-2.43;100.00
79362;BME280;68830;47.566;19.012;2023-12-20T08:24:59;99722.28;;;-2.81;100.00
79362;BME280;68830;47.566;19.012;2023-12-20T08:28:02;99772.66;;;-2.32;100.00
79362;BME280;68830;47.566;19.012;2023-12-20T08:31:05;99673.59;;;-2.93;100.00
79362;BME280;68830;47.566;19.012;2023-12-20T08:34:08;99746.16;;;-2.56;100.00
79362;BME280;68830;47.566;19.012;2023-12-20T08:37:13;99772.56;;;-2.29;100.00
79362;BME280;68830;47.566;19.012;2023-12-20T08:40:15;99746.88;;;-2.35;100.00
79362;BME280;68830;47.566;19.012;2023-12-20T08:43:17;99762.88;;;-2.25;100.00
79362;BME280;68830;47.566;19.012;2023-12-20T08:46:20;99601.13;;;-3.31;100.00
79362;BME280;68830;47.566;19.012;2023-12-20T08:49:24;99792.03;;;-2.03;100.00
79362;BME280;68830;47.566;19.012;2023-12-20T08:52:27;99617.50;;;-3.31;100.00
79362;BME280;68830;47.566;19.012;2023-12-20T08:55:31;99778.13;;;-2.19;100.00
79362;BME280;68830;47.566;19.012;2023-12-20T08:58:33;99779.91;;;-2.02;100.00
79362;BME280;68830;47.566;19.012;2023-12-20T09:01:38;99780.56;;;-2.16;100.00
79362;BME280;68830;47.566;19.012;2023-12-20T09:04:41;99783.63;;;-2.25;100.00
79362;BME280;68830;47.566;19.012;2023-12-20T09:07:44;99677.47;;;-2.83;100.00
79362;BME280;68830;47.566;19.012;2023-12-20T09:10:46;99787.66;;;-2.20;100.00
79362;BME280;68830;47.566;19.012;2023-12-20T09:13:49;99783.09;;;-2.15;100.00
79362;BME280;68830;47.566;19.012;2023-12-20T09:16:51;99734.84;;;-2.36;100.00
79362;BME280;68830;47.566;19.012;2023-12-20T09:19:54;99663.03;;;-2.70;100.00
79362;BME280;68830;47.566;19.012;2023-12-20T09:22:57;99592.19;;;-3.07;100.00
79362;BME280;68830;47.566;19.012;2023-12-20T09:26:01;99674.00;;;-2.29;100.00
79362;BME280;68830;47.566;19.012;2023-12-20T09:29:03;99686.59;;;-1.87;100.00
79362;BME280;68830;47.566;19.012;2023-12-20T09:32:06;99749.25;;;-1.60;100.00
79362;BME280;68830;47.566;19.012;2023-12-20T09:35:10;99688.13;;;-1.83;100.00
79362;BME280;68830;47.566;19.012;2023-12-20T09:38:12;99740.31;;;-1.54;100.00
79362;BME280;68830;47.566;19.012;2023-12-20T09:41:19;99734.75;;;-1.64;100.00
79362;BME280;68830;47.566;19.012;2023-12-20T09:44:22;99727.31;;;-1.54;100.00
79362;BME280;68830;47.566;19.012;2023-12-20T09:47:25;99724.34;;;-1.46;100.00
79362;BME280;68830;47.566;19.012;2023-12-20T09:50:30;99721.44;;;-1.40;100.00
79362;BME280;68830;47.566;19.012;2023-12-20T09:53:36;99698.19;;;-1.76;100.00
79362;BME280;68830;47.566;19.012;2023-12-20T09:56:39;99721.13;;;-1.34;100.00
79362;BME280;68830;47.566;19.012;2023-12-20T09:59:41;99718.00;;;-1.08;100.00
79362;BME280;68830;47.566;19.012;2023-12-20T10:02:49;99687.13;;;-1.30;100.00
79362;BME280;68830;47.566;19.012;2023-12-20T10:05:54;99708.09;;;-1.17;100.00
79362;BME280;68830;47.566;19.012;2023-12-20T10:08:59;99697.72;;;-1.17;100.00
79362;BME280;68830;47.566;19.012;2023-12-20T10:12:01;99704.75;;;-1.19;100.00
79362;BME280;68830;47.566;19.012;2023-12-20T10:15:04;99691.25;;;-1.10;100.00
79362;BME280;68830;47.566;19.012;2023-12-20T10:18:06;99705.84;;;-1.07;100.00
79362;BME280;68830;47.566;19.012;2023-12-20T10:21:10;99673.34;;;-0.99;100.00
79362;BME280;68830;47.566;19.012;2023-12-20T10:24:17;99670.91;;;-1.17;100.00
79362;BME280;68830;47.566;19.012;2023-12-20T10:27:19;99649.38;;;-0.88;100.00
79362;BME280;68830;47.566;19.012;2023-12-20T10:30:21;99657.91;;;-0.70;100.00
79362;BME280;68830;47.566;19.012;2023-12-20T10:33:24;99656.41;;;-0.74;100.00
79362;BME280;68830;47.566;19.012;2023-12-20T10:36:31;99644.09;;;-0.71;100.00
79362;BME280;68830;47.566;19.012;2023-12-20T10:39:34;99614.50;;;-0.84;100.00
79362;BME280;68830;47.566;19.012;2023-12-20T10:42:37;99628.63;;;-0.58;100.00
79362;BME280;68830;47.566;19.012;2023-12-20T10:45:42;99623.34;;;-0.56;100.00
79362;BME280;68830;47.566;19.012;2023-12-20T10:48:48;99633.16;;;-0.46;100.00
79362;BME280;68830;47.566;19.012;2023-12-20T10:51:54;99620.16;;;-0.32;100.00
79362;BME280;68830;47.566;19.012;2023-12-20T10:55:00;99614.25;;;-0.19;100.00
79362;BME280;68830;47.566;19.012;2023-12-20T10:58:07;99615.88;;;-0.03;100.00
79362;BME280;68830;47.566;19.012;2023-12-20T11:01:10;99605.03;;;0.05;100.00
79362;BME280;68830;47.566;19.012;2023-12-20T11:04:19;99614.22;;;0.11;100.00
79362;BME280;68830;47.566;19.012;2023-12-20T11:07:36;99595.47;;;0.48;100.00
79362;BME280;68830;47.566;19.012;2023-12-20T11:10:49;99592.59;;;0.53;100.00
79362;BME280;68830;47.566;19.012;2023-12-20T11:13:58;99581.50;;;0.78;100.00
79362;BME280;68830;47.566;19.012;2023-12-20T11:17:08;99577.13;;;1.05;100.00
79362;BME280;68830;47.566;19.012;2023-12-20T11:20:12;99573.72;;;1.17;100.00
79362;BME280;68830;47.566;19.012;2023-12-20T11:23:16;99567.47;;;1.47;100.00
79362;BME280;68830;47.566;19.012;2023-12-20T11:26:22;99570.81;;;1.49;100.00
79362;BME280;68830;47.566;19.012;2023-12-20T11:29:33;99567.81;;;1.68;100.00
79362;BME280;68830;47.566;19.012;2023-12-20T11:32:36;99542.47;;;1.83;100.00
79362;BME280;68830;47.566;19.012;2023-12-20T11:35:39;99543.22;;;2.10;100.00
79362;BME280;68830;47.566;19.012;2023-12-20T11:38:54;99546.97;;;2.19;100.00
79362;BME280;68830;47.566;19.012;2023-12-20T11:42:04;99545.13;;;2.57;100.00
79362;BME280;68830;47.566;19.012;2023-12-20T11:45:09;99545.41;;;3.02;100.00
79362;BME280;68830;47.566;19.012;2023-12-20T11:48:12;99538.50;;;3.01;100.00
79362;BME280;68830;47.566;19.012;2023-12-20T11:51:15;99543.06;;;3.34;100.00
79362;BME280;68830;47.566;19.012;2023-12-20T11:54:19;99527.84;;;3.74;100.00
79362;BME280;68830;47.566;19.012;2023-12-20T11:57:21;99517.53;;;4.29;100.00
79362;BME280;68830;47.566;19.012;2023-12-20T12:00:23;99521.06;;;4.84;100.00
79362;BME280;68830;47.566;19.012;2023-12-20T12:03:25;99507.97;;;5.16;100.00
79362;BME280;68830;47.566;19.012;2023-12-20T12:06:27;99497.81;;;5.22;100.00
79362;BME280;68830;47.566;19.012;2023-12-20T12:09:31;99486.97;;;5.16;100.00
79362;BME280;68830;47.566;19.012;2023-12-20T12:12:33;99493.72;;;5.29;100.00
79362;BME280;68830;47.566;19.012;2023-12-20T12:15:36;99481.28;;;5.31;100.00
79362;BME280;68830;47.566;19.012;2023-12-20T12:18:38;99488.16;;;5.23;100.00
79362;BME280;68830;47.566;19.012;2023-12-20T12:21:40;99492.56;;;5.22;100.00
79362;BME280;68830;47.566;19.012;2023-12-20T12:24:44;99489.41;;;5.28;100.00
79362;BME280;68830;47.566;19.012;2023-12-20T12:27:46;99507.84;;;5.17;100.00
79362;BME280;68830;47.566;19.012;2023-12-20T12:30:56;99492.47;;;5.13;100.00
79362;BME280;68830;47.566;19.012;2023-12-20T12:33:59;99478.78;;;5.09;100.00
79362;BME280;68830;47.566;19.012;2023-12-20T12:37:02;99469.84;;;5.00;100.00
79362;BME280;68830;47.566;19.012;2023-12-20T12:40:06;99489.84;;;5.13;100.00
79362;BME280;68830;47.566;19.012;2023-12-20T12:43:08;99484.84;;;5.09;100.00
79362;BME280;68830;47.566;19.012;2023-12-20T12:46:11;99478.28;;;5.04;100.00
79362;BME280;68830;47.566;19.012;2023-12-20T12:49:13;99461.44;;;4.86;100.00
79362;BME280;68830;47.566;19.012;2023-12-20T12:52:16;99490.25;;;4.97;100.00
79362;BME280;68830;47.566;19.012;2023-12-20T12:55:20;99485.00;;;4.97;100.00
79362;BME280;68830;47.566;19.012;2023-12-20T12:58:22;99468.97;;;4.79;100.00
79362;BME280;68830;47.566;19.012;2023-12-20T13:01:24;99470.13;;;4.86;100.00
79362;BME280;68830;47.566;19.012;2023-12-20T13:04:26;99475.63;;;4.83;100.00
79362;BME280;68830;47.566;19.012;2023-12-20T13:07:28;99462.19;;;4.76;100.00
79362;BME280;68830;47.566;19.012;2023-12-20T13:10:32;99462.59;;;4.61;100.00
79362;BME280;68830;47.566;19.012;2023-12-20T13:13:34;99487.72;;;4.63;100.00
79362;BME280;68830;47.566;19.012;2023-12-20T13:16:36;99467.84;;;4.61;100.00
79362;BME280;68830;47.566;19.012;2023-12-20T13:19:38;99410.81;;;4.31;100.00
79362;BME280;68830;47.566;19.012;2023-12-20T13:22:41;99462.34;;;4.53;100.00
79362;BME280;68830;47.566;19.012;2023-12-20T13:25:45;99454.28;;;4.44;100.00
79362;BME280;68830;47.566;19.012;2023-12-20T13:28:47;99465.72;;;4.32;100.00
79362;BME280;68830;47.566;19.012;2023-12-20T13:31:49;99480.63;;;4.20;100.00
79362;BME280;68830;47.566;19.012;2023-12-20T13:34:51;99467.41;;;4.11;100.00
79362;BME280;68830;47.566;19.012;2023-12-20T13:37:54;99437.88;;;3.86;100.00
79362;BME280;68830;47.566;19.012;2023-12-20T13:40:59;99456.94;;;3.88;100.00
79362;BME280;68830;47.566;19.012;2023-12-20T13:44:01;99467.66;;;3.85;100.00
79362;BME280;68830;47.566;19.012;2023-12-20T13:47:05;99457.63;;;3.90;100.00
79362;BME280;68830;47.566;19.012;2023-12-20T13:50:08;99416.78;;;3.77;100.00
79362;BME280;68830;47.566;19.012;2023-12-20T13:53:10;99464.28;;;3.95;100.00
79362;BME280;68830;47.566;19.012;2023-12-20T13:56:15;99446.94;;;4.16;100.00
79362;BME280;68830;47.566;19.012;2023-12-20T13:59:17;99367.06;;;3.54;100.00
79362;BME280;68830;47.566;19.012;2023-12-20T14:02:19;99449.06;;;4.11;100.00
79362;BME280;68830;47.566;19.012;2023-12-20T14:05:21;99412.38;;;3.66;100.00
79362;BME280;68830;47.566;19.012;2023-12-20T14:08:29;99460.13;;;3.81;100.00
79362;BME280;68830;47.566;19.012;2023-12-20T14:11:33;99457.63;;;3.79;100.00
79362;BME280;68830;47.566;19.012;2023-12-20T14:14:35;99430.47;;;3.58;100.00
79362;BME280;68830;47.566;19.012;2023-12-20T14:17:37;99446.31;;;3.90;100.00
79362;BME280;68830;47.566;19.012;2023-12-20T14:20:40;99433.94;;;3.92;100.00
79362;BME280;68830;47.566;19.012;2023-12-20T14:23:43;99459.06;;;4.17;100.00
79362;BME280;68830;47.566;19.012;2023-12-20T14:26:49;99458.56;;;4.34;100.00
79362;BME280;68830;47.566;19.012;2023-12-20T14:29:51;99449.88;;;4.45;100.00
79362;BME280;68830;47.566;19.012;2023-12-20T14:32:53;99443.28;;;4.62;100.00
79362;BME280;68830;47.566;19.012;2023-12-20T14:35:55;99461.84;;;4.59;100.00
79362;BME280;68830;47.566;19.012;2023-12-20T14:38:57;99455.06;;;4.56;100.00
79362;BME280;68830;47.566;19.012;2023-12-20T14:42:00;99440.56;;;4.41;100.00
79362;BME280;68830;47.566;19.012;2023-12-20T14:45:04;99469.28;;;4.42;100.00
79362;BME280;68830;47.566;19.012;2023-12-20T14:48:06;99465.59;;;4.45;100.00
79362;BME280;68830;47.566;19.012;2023-12-20T14:51:08;99483.47;;;4.51;100.00
79362;BME280;68830;47.566;19.012;2023-12-20T14:54:10;99470.94;;;4.43;100.00
79362;BME280;68830;47.566;19.012;2023-12-20T14:57:14;99492.53;;;4.47;100.00
79362;BME280;68830;47.566;19.012;2023-12-20T15:00:16;99470.84;;;4.11;100.00
79362;BME280;68830;47.566;19.012;2023-12-20T15:03:22;99505.38;;;4.39;100.00
79362;BME280;68830;47.566;19.012;2023-12-20T15:06:24;99513.88;;;4.31;100.00
79362;BME280;68830;47.566;19.012;2023-12-20T15:09:28;99512.06;;;4.20;100.00
79362;BME280;68830;47.566;19.012;2023-12-20T15:12:32;99451.94;;;3.85;100.00
79362;BME280;68830;47.566;19.012;2023-12-20T15:15:36;99505.75;;;4.23;100.00
79362;BME280;68830;47.566;19.012;2023-12-20T15:18:39;99545.03;;;4.12;100.00
79362;BME280;68830;47.566;19.012;2023-12-20T15:21:42;99537.19;;;4.12;100.00
79362;BME280;68830;47.566;19.012;2023-12-20T15:24:48;99542.22;;;4.15;100.00
79362;BME280;68830;47.566;19.012;2023-12-20T15:27:54;99545.53;;;4.06;100.00
79362;BME280;68830;47.566;19.012;2023-12-20T15:30:56;99537.06;;;4.02;100.00
79362;BME280;68830;47.566;19.012;2023-12-20T15:33:58;99496.88;;;3.57;100.00
79362;BME280;68830;47.566;19.012;2023-12-20T15:37:01;99504.81;;;3.44;100.00
79362;BME280;68830;47.566;19.012;2023-12-20T15:40:03;99540.94;;;3.74;100.00
79362;BME280;68830;47.566;19.012;2023-12-20T15:43:08;99531.34;;;3.86;100.00
79362;BME280;68830;47.566;19.012;2023-12-20T15:46:11;99550.19;;;4.02;100.00
79362;BME280;68830;47.566;19.012;2023-12-20T15:49:13;99552.34;;;4.19;100.00
79362;BME280;68830;47.566;19.012;2023-12-20T15:52:17;99555.31;;;4.26;100.00
79362;BME280;68830;47.566;19.012;2023-12-20T15:55:19;99563.88;;;4.17;100.00